sensor_id;sensor_type;location;lat;lon;timestamp;P1;durP1;ratioP1;P2;durP2;ratioP2
12625;SDS011;6378;42.684;23.372;2023-04-24T00:02:09;8.63;;;6.57;;
12625;SDS011;6378;42.684;23.372;2023-04-24T00:04:36;6.03;;;5.40;;
12625;SDS011;6378;42.684;23.372;2023-04-24T00:07:05;7.73;;;5.70;;
12625;SDS011;6378;42.684;23.372;2023-04-24T00:09:31;7.40;;;5.77;;
12625;SDS011;6378;42.684;23.372;2023-04-24T00:11:57;9.30;;;6.60;;
12625;SDS011;6378;42.684;23.372;2023-04-24T00:14:23;7.60;;;5.37;;
12625;SDS011;6378;42.684;23.372;2023-04-24T00:16:48;9.13;;;6.83;;
12625;SDS011;6378;42.684;23.372;2023-04-24T00:19:13;9.70;;;6.17;;
12625;SDS011;6378;42.684;23.372;2023-04-24T00:21:39;8.43;;;5.93;;
12625;SDS011;6378;42.684;23.372;2023-04-24T00:24:06;8.90;;;5.80;;
12625;SDS011;6378;42.684;23.372;2023-04-24T00:26:33;8.13;;;5.70;;
12625;SDS011;6378;42.684;23.372;2023-04-24T00:28:59;8.47;;;6.27;;
12625;SDS011;6378;42.684;23.372;2023-04-24T00:31:25;7.30;;;6.03;;
12625;SDS011;6378;42.684;23.372;2023-04-24T00:33:50;10.37;;;6.33;;
12625;SDS011;6378;42.684;23.372;2023-04-24T00:36:16;9.13;;;6.40;;
12625;SDS011;6378;42.684;23.372;2023-04-24T00:38:41;10.43;;;6.10;;
12625;SDS011;6378;42.684;23.372;2023-04-24T00:41:06;8.80;;;7.33;;
12625;SDS011;6378;42.684;23.372;2023-04-24T00:43:32;8.73;;;6.50;;
12625;SDS011;6378;42.684;23.372;2023-04-24T00:45:57;8.17;;;6.77;;
12625;SDS011;6378;42.684;23.372;2023-04-24T00:48:24;8.93;;;6.50;;
12625;SDS011;6378;42.684;23.372;2023-04-24T00:50:50;8.97;;;6.20;;
12625;SDS011;6378;42.684;23.372;2023-04-24T00:53:15;7.20;;;6.43;;
12625;SDS011;6378;42.684;23.372;2023-04-24T00:55:41;7.37;;;6.37;;
12625;SDS011;6378;42.684;23.372;2023-04-24T00:58:06;7.57;;;6.17;;
12625;SDS011;6378;42.684;23.372;2023-04-24T01:00:32;7.03;;;6.20;;
12625;SDS011;6378;42.684;23.372;2023-04-24T01:02:59;9.43;;;6.60;;
12625;SDS011;6378;42.684;23.372;2023-04-24T01:05:26;7.33;;;5.80;;
12625;SDS011;6378;42.684;23.372;2023-04-24T01:07:52;9.13;;;6.93;;
12625;SDS011;6378;42.684;23.372;2023-04-24T01:10:17;8.13;;;6.30;;
12625;SDS011;6378;42.684;23.372;2023-04-24T01:12:45;8.03;;;6.37;;
12625;SDS011;6378;42.684;23.372;2023-04-24T01:15:11;7.95;;;6.03;;
12625;SDS011;6378;42.684;23.372;2023-04-24T01:17:36;9.75;;;6.25;;
12625;SDS011;6378;42.684;23.372;2023-04-24T01:20:03;8.25;;;6.07;;
12625;SDS011;6378;42.684;23.372;2023-04-24T01:22:30;9.52;;;8.48;;
12625;SDS011;6378;42.684;23.372;2023-04-24T01:24:56;7.10;;;6.38;;
12625;SDS011;6378;42.684;23.372;2023-04-24T01:27:22;7.95;;;7.18;;
12625;SDS011;6378;42.684;23.372;2023-04-24T01:29:47;8.27;;;6.50;;
12625;SDS011;6378;42.684;23.372;2023-04-24T01:32:14;8.20;;;6.65;;
12625;SDS011;6378;42.684;23.372;2023-04-24T01:34:40;7.32;;;6.60;;
12625;SDS011;6378;42.684;23.372;2023-04-24T01:37:05;8.02;;;6.40;;
12625;SDS011;6378;42.684;23.372;2023-04-24T01:39:31;7.40;;;6.70;;
12625;SDS011;6378;42.684;23.372;2023-04-24T01:41:58;8.32;;;6.72;;
12625;SDS011;6378;42.684;23.372;2023-04-24T01:44:25;8.30;;;7.20;;
12625;SDS011;6378;42.684;23.372;2023-04-24T01:46:51;12.67;;;7.20;;
12625;SDS011;6378;42.684;23.372;2023-04-24T01:49:19;9.83;;;7.37;;
12625;SDS011;6378;42.684;23.372;2023-04-24T01:51:44;9.47;;;6.97;;
12625;SDS011;6378;42.684;23.372;2023-04-24T01:54:10;8.70;;;7.07;;
12625;SDS011;6378;42.684;23.372;2023-04-24T01:56:36;8.10;;;7.13;;
12625;SDS011;6378;42.684;23.372;2023-04-24T01:59:04;10.40;;;8.20;;
12625;SDS011;6378;42.684;23.372;2023-04-24T02:01:34;9.50;;;8.00;;
12625;SDS011;6378;42.684;23.372;2023-04-24T02:04:06;9.57;;;7.43;;
12625;SDS011;6378;42.684;23.372;2023-04-24T02:06:32;12.00;;;8.00;;
12625;SDS011;6378;42.684;23.372;2023-04-24T02:08:58;11.60;;;8.47;;
12625;SDS011;6378;42.684;23.372;2023-04-24T02:11:25;10.23;;;8.00;;
12625;SDS011;6378;42.684;23.372;2023-04-24T02:13:51;12.20;;;8.33;;
12625;SDS011;6378;42.684;23.372;2023-04-24T02:16:17;10.10;;;8.30;;
12625;SDS011;6378;42.684;23.372;2023-04-24T02:18:43;10.83;;;8.83;;
12625;SDS011;6378;42.684;23.372;2023-04-24T02:21:09;9.33;;;8.30;;
12625;SDS011;6378;42.684;23.372;2023-04-24T02:23:34;9.43;;;8.53;;
12625;SDS011;6378;42.684;23.372;2023-04-24T02:26:00;10.70;;;8.30;;
12625;SDS011;6378;42.684;23.372;2023-04-24T02:28:25;10.80;;;8.17;;
12625;SDS011;6378;42.684;23.372;2023-04-24T02:30:51;11.93;;;8.60;;
12625;SDS011;6378;42.684;23.372;2023-04-24T02:33:16;12.27;;;8.47;;
12625;SDS011;6378;42.684;23.372;2023-04-24T02:35:42;11.17;;;8.73;;
12625;SDS011;6378;42.684;23.372;2023-04-24T02:38:07;10.27;;;7.97;;
12625;SDS011;6378;42.684;23.372;2023-04-24T02:40:32;9.73;;;8.63;;
12625;SDS011;6378;42.684;23.372;2023-04-24T02:42:58;10.10;;;7.70;;
12625;SDS011;6378;42.684;23.372;2023-04-24T02:45:23;11.10;;;8.43;;
12625;SDS011;6378;42.684;23.372;2023-04-24T02:47:49;11.90;;;8.87;;
12625;SDS011;6378;42.684;23.372;2023-04-24T02:50:14;10.47;;;8.37;;
12625;SDS011;6378;42.684;23.372;2023-04-24T02:52:40;12.70;;;7.93;;
12625;SDS011;6378;42.684;23.372;2023-04-24T02:55:05;11.20;;;9.17;;
12625;SDS011;6378;42.684;23.372;2023-04-24T02:57:32;12.23;;;9.63;;
12625;SDS011;6378;42.684;23.372;2023-04-24T02:59:58;10.83;;;9.13;;
12625;SDS011;6378;42.684;23.372;2023-04-24T03:02:24;12.27;;;9.50;;
12625;SDS011;6378;42.684;23.372;2023-04-24T03:04:50;12.33;;;9.33;;
12625;SDS011;6378;42.684;23.372;2023-04-24T03:07:15;11.13;;;9.93;;
12625;SDS011;6378;42.684;23.372;2023-04-24T03:09:41;10.27;;;9.20;;
12625;SDS011;6378;42.684;23.372;2023-04-24T03:12:06;11.20;;;9.37;;
12625;SDS011;6378;42.684;23.372;2023-04-24T03:14:32;12.50;;;8.60;;
12625;SDS011;6378;42.684;23.372;2023-04-24T03:16:57;10.97;;;8.10;;
12625;SDS011;6378;42.684;23.372;2023-04-24T03:19:23;12.80;;;9.10;;
12625;SDS011;6378;42.684;23.372;2023-04-24T03:21:48;10.67;;;8.30;;
12625;SDS011;6378;42.684;23.372;2023-04-24T03:24:14;9.40;;;7.97;;
12625;SDS011;6378;42.684;23.372;2023-04-24T03:26:40;11.93;;;7.93;;
12625;SDS011;6378;42.684;23.372;2023-04-24T03:29:06;8.80;;;7.88;;
12625;SDS011;6378;42.684;23.372;2023-04-24T03:31:31;10.25;;;7.88;;
12625;SDS011;6378;42.684;23.372;2023-04-24T03:33:56;11.90;;;7.63;;
12625;SDS011;6378;42.684;23.372;2023-04-24T03:36:22;8.20;;;7.27;;
12625;SDS011;6378;42.684;23.372;2023-04-24T03:38:47;11.53;;;8.33;;
12625;SDS011;6378;42.684;23.372;2023-04-24T03:41:13;9.03;;;7.97;;
12625;SDS011;6378;42.684;23.372;2023-04-24T03:43:38;11.23;;;7.83;;
12625;SDS011;6378;42.684;23.372;2023-04-24T03:46:04;10.87;;;8.30;;
12625;SDS011;6378;42.684;23.372;2023-04-24T03:48:30;8.80;;;7.53;;
12625;SDS011;6378;42.684;23.372;2023-04-24T03:50:55;10.57;;;8.60;;
12625;SDS011;6378;42.684;23.372;2023-04-24T03:53:21;10.83;;;7.87;;
12625;SDS011;6378;42.684;23.372;2023-04-24T03:55:46;10.88;;;8.10;;
12625;SDS011;6378;42.684;23.372;2023-04-24T03:58:12;10.73;;;8.55;;
12625;SDS011;6378;42.684;23.372;2023-04-24T04:00:39;13.90;;;9.23;;
12625;SDS011;6378;42.684;23.372;2023-04-24T04:03:05;11.52;;;8.18;;
12625;SDS011;6378;42.684;23.372;2023-04-24T04:05:31;11.48;;;7.43;;
12625;SDS011;6378;42.684;23.372;2023-04-24T04:07:56;11.27;;;6.82;;
12625;SDS011;6378;42.684;23.372;2023-04-24T04:10:22;7.57;;;6.20;;
12625;SDS011;6378;42.684;23.372;2023-04-24T04:12:47;12.50;;;7.75;;
12625;SDS011;6378;42.684;23.372;2023-04-24T04:15:13;8.57;;;6.45;;
12625;SDS011;6378;42.684;23.372;2023-04-24T04:17:38;11.77;;;6.65;;
12625;SDS011;6378;42.684;23.372;2023-04-24T04:20:04;8.18;;;6.43;;
12625;SDS011;6378;42.684;23.372;2023-04-24T04:22:35;7.45;;;5.70;;
12625;SDS011;6378;42.684;23.372;2023-04-24T04:25:01;8.45;;;6.50;;
12625;SDS011;6378;42.684;23.372;2023-04-24T04:27:26;8.15;;;6.30;;
12625;SDS011;6378;42.684;23.372;2023-04-24T04:29:53;9.18;;;7.10;;
12625;SDS011;6378;42.684;23.372;2023-04-24T04:32:18;8.68;;;6.30;;
12625;SDS011;6378;42.684;23.372;2023-04-24T04:34:44;8.27;;;6.40;;
12625;SDS011;6378;42.684;23.372;2023-04-24T04:37:10;8.57;;;7.07;;
12625;SDS011;6378;42.684;23.372;2023-04-24T04:39:37;10.57;;;6.68;;
12625;SDS011;6378;42.684;23.372;2023-04-24T04:42:03;9.23;;;7.53;;
12625;SDS011;6378;42.684;23.372;2023-04-24T04:44:28;9.38;;;6.93;;
12625;SDS011;6378;42.684;23.372;2023-04-24T04:46:55;8.82;;;6.45;;
12625;SDS011;6378;42.684;23.372;2023-04-24T04:49:21;12.82;;;7.93;;
12625;SDS011;6378;42.684;23.372;2023-04-24T04:51:48;10.02;;;8.10;;
12625;SDS011;6378;42.684;23.372;2023-04-24T04:54:15;10.05;;;7.15;;
12625;SDS011;6378;42.684;23.372;2023-04-24T04:56:41;11.43;;;7.50;;
12625;SDS011;6378;42.684;23.372;2023-04-24T04:59:06;11.23;;;6.70;;
12625;SDS011;6378;42.684;23.372;2023-04-24T05:01:32;10.20;;;7.00;;
12625;SDS011;6378;42.684;23.372;2023-04-24T05:03:57;9.23;;;7.35;;
12625;SDS011;6378;42.684;23.372;2023-04-24T05:06:23;11.18;;;8.02;;
12625;SDS011;6378;42.684;23.372;2023-04-24T05:08:48;9.45;;;7.75;;
12625;SDS011;6378;42.684;23.372;2023-04-24T05:11:14;13.07;;;9.43;;
12625;SDS011;6378;42.684;23.372;2023-04-24T05:13:40;13.63;;;8.80;;
12625;SDS011;6378;42.684;23.372;2023-04-24T05:16:05;11.68;;;8.23;;
12625;SDS011;6378;42.684;23.372;2023-04-24T05:18:31;10.23;;;8.25;;
12625;SDS011;6378;42.684;23.372;2023-04-24T05:20:57;15.55;;;9.50;;
12625;SDS011;6378;42.684;23.372;2023-04-24T05:23:22;16.73;;;9.73;;
12625;SDS011;6378;42.684;23.372;2023-04-24T05:25:47;13.85;;;9.20;;
12625;SDS011;6378;42.684;23.372;2023-04-24T05:28:13;13.23;;;9.10;;
12625;SDS011;6378;42.684;23.372;2023-04-24T05:30:38;12.63;;;8.85;;
12625;SDS011;6378;42.684;23.372;2023-04-24T05:33:04;12.60;;;8.82;;
12625;SDS011;6378;42.684;23.372;2023-04-24T05:35:30;12.38;;;9.13;;
12625;SDS011;6378;42.684;23.372;2023-04-24T05:37:55;20.33;;;10.98;;
12625;SDS011;6378;42.684;23.372;2023-04-24T05:40:20;16.05;;;11.10;;
12625;SDS011;6378;42.684;23.372;2023-04-24T05:42:46;15.15;;;10.10;;
12625;SDS011;6378;42.684;23.372;2023-04-24T05:45:11;15.30;;;10.02;;
12625;SDS011;6378;42.684;23.372;2023-04-24T05:47:41;14.13;;;10.05;;
12625;SDS011;6378;42.684;23.372;2023-04-24T05:50:07;16.42;;;10.32;;
12625;SDS011;6378;42.684;23.372;2023-04-24T05:52:33;17.63;;;9.55;;
12625;SDS011;6378;42.684;23.372;2023-04-24T05:54:58;12.63;;;10.10;;
12625;SDS011;6378;42.684;23.372;2023-04-24T05:57:24;46.50;;;31.38;;
12625;SDS011;6378;42.684;23.372;2023-04-24T05:59:50;15.02;;;11.07;;
12625;SDS011;6378;42.684;23.372;2023-04-24T06:02:15;14.43;;;9.60;;
12625;SDS011;6378;42.684;23.372;2023-04-24T06:04:41;17.17;;;9.73;;
12625;SDS011;6378;42.684;23.372;2023-04-24T06:07:06;11.85;;;10.20;;
12625;SDS011;6378;42.684;23.372;2023-04-24T06:09:32;11.77;;;9.43;;
12625;SDS011;6378;42.684;23.372;2023-04-24T06:11:58;14.23;;;10.13;;
12625;SDS011;6378;42.684;23.372;2023-04-24T06:14:24;15.90;;;12.32;;
12625;SDS011;6378;42.684;23.372;2023-04-24T06:16:50;16.42;;;11.20;;
12625;SDS011;6378;42.684;23.372;2023-04-24T06:19:15;14.07;;;10.77;;
12625;SDS011;6378;42.684;23.372;2023-04-24T06:21:41;13.38;;;9.90;;
12625;SDS011;6378;42.684;23.372;2023-04-24T06:24:06;13.63;;;9.25;;
12625;SDS011;6378;42.684;23.372;2023-04-24T06:26:32;11.18;;;9.57;;
12625;SDS011;6378;42.684;23.372;2023-04-24T06:28:57;12.25;;;9.35;;
12625;SDS011;6378;42.684;23.372;2023-04-24T06:31:24;12.55;;;9.55;;
12625;SDS011;6378;42.684;23.372;2023-04-24T06:33:49;13.00;;;9.40;;
12625;SDS011;6378;42.684;23.372;2023-04-24T06:36:15;11.82;;;9.73;;
12625;SDS011;6378;42.684;23.372;2023-04-24T06:38:41;12.35;;;10.85;;
12625;SDS011;6378;42.684;23.372;2023-04-24T06:41:07;16.98;;;10.98;;
12625;SDS011;6378;42.684;23.372;2023-04-24T06:43:32;13.30;;;9.88;;
12625;SDS011;6378;42.684;23.372;2023-04-24T06:45:59;12.18;;;10.60;;
12625;SDS011;6378;42.684;23.372;2023-04-24T06:48:25;16.02;;;12.75;;
12625;SDS011;6378;42.684;23.372;2023-04-24T06:50:51;14.05;;;9.30;;
12625;SDS011;6378;42.684;23.372;2023-04-24T06:53:17;13.60;;;10.43;;
12625;SDS011;6378;42.684;23.372;2023-04-24T06:55:42;13.93;;;9.70;;
12625;SDS011;6378;42.684;23.372;2023-04-24T06:58:09;13.40;;;10.55;;
12625;SDS011;6378;42.684;23.372;2023-04-24T07:00:35;15.35;;;9.90;;
12625;SDS011;6378;42.684;23.372;2023-04-24T07:03:01;16.15;;;9.07;;
12625;SDS011;6378;42.684;23.372;2023-04-24T07:05:27;15.57;;;9.18;;
12625;SDS011;6378;42.684;23.372;2023-04-24T07:07:53;12.68;;;9.75;;
12625;SDS011;6378;42.684;23.372;2023-04-24T07:10:18;12.95;;;10.52;;
12625;SDS011;6378;42.684;23.372;2023-04-24T07:12:45;13.55;;;10.45;;
12625;SDS011;6378;42.684;23.372;2023-04-24T07:15:11;14.75;;;10.40;;
12625;SDS011;6378;42.684;23.372;2023-04-24T07:17:36;14.50;;;10.32;;
12625;SDS011;6378;42.684;23.372;2023-04-24T07:20:03;13.88;;;10.32;;
12625;SDS011;6378;42.684;23.372;2023-04-24T07:22:30;18.30;;;14.57;;
12625;SDS011;6378;42.684;23.372;2023-04-24T07:24:55;16.55;;;11.30;;
12625;SDS011;6378;42.684;23.372;2023-04-24T07:27:21;13.05;;;11.30;;
12625;SDS011;6378;42.684;23.372;2023-04-24T07:29:46;13.80;;;10.52;;
12625;SDS011;6378;42.684;23.372;2023-04-24T07:32:12;14.88;;;11.20;;
12625;SDS011;6378;42.684;23.372;2023-04-24T07:34:37;16.38;;;12.23;;
12625;SDS011;6378;42.684;23.372;2023-04-24T07:39:47;13.80;;;10.75;;
12625;SDS011;6378;42.684;23.372;2023-04-24T07:42:12;17.33;;;12.50;;
12625;SDS011;6378;42.684;23.372;2023-04-24T07:44:38;14.48;;;12.40;;
12625;SDS011;6378;42.684;23.372;2023-04-24T07:47:03;16.88;;;10.52;;
12625;SDS011;6378;42.684;23.372;2023-04-24T07:49:29;12.38;;;10.18;;
12625;SDS011;6378;42.684;23.372;2023-04-24T07:51:54;10.32;;;8.32;;
12625;SDS011;6378;42.684;23.372;2023-04-24T07:54:20;8.88;;;7.38;;
12625;SDS011;6378;42.684;23.372;2023-04-24T07:56:45;8.02;;;7.07;;
12625;SDS011;6378;42.684;23.372;2023-04-24T07:59:11;8.93;;;7.80;;
12625;SDS011;6378;42.684;23.372;2023-04-24T08:01:36;13.25;;;10.05;;
12625;SDS011;6378;42.684;23.372;2023-04-24T08:04:03;12.30;;;8.98;;
12625;SDS011;6378;42.684;23.372;2023-04-24T08:06:28;10.35;;;8.63;;
12625;SDS011;6378;42.684;23.372;2023-04-24T08:08:58;10.18;;;9.00;;
12625;SDS011;6378;42.684;23.372;2023-04-24T08:11:25;8.88;;;7.95;;
12625;SDS011;6378;42.684;23.372;2023-04-24T08:13:51;10.10;;;8.18;;
12625;SDS011;6378;42.684;23.372;2023-04-24T08:16:16;11.73;;;7.30;;
12625;SDS011;6378;42.684;23.372;2023-04-24T08:18:42;8.27;;;7.25;;
12625;SDS011;6378;42.684;23.372;2023-04-24T08:21:07;9.07;;;6.80;;
12625;SDS011;6378;42.684;23.372;2023-04-24T08:23:33;10.82;;;6.88;;
12625;SDS011;6378;42.684;23.372;2023-04-24T08:25:58;12.25;;;8.48;;
12625;SDS011;6378;42.684;23.372;2023-04-24T08:28:24;8.43;;;7.40;;
12625;SDS011;6378;42.684;23.372;2023-04-24T08:30:50;8.68;;;7.10;;
12625;SDS011;6378;42.684;23.372;2023-04-24T08:33:19;11.02;;;7.72;;
12625;SDS011;6378;42.684;23.372;2023-04-24T08:35:45;7.70;;;7.00;;
12625;SDS011;6378;42.684;23.372;2023-04-24T08:38:11;9.95;;;7.40;;
12625;SDS011;6378;42.684;23.372;2023-04-24T08:40:36;8.25;;;6.93;;
12625;SDS011;6378;42.684;23.372;2023-04-24T08:43:02;8.10;;;7.25;;
12625;SDS011;6378;42.684;23.372;2023-04-24T08:45:28;7.43;;;6.50;;
12625;SDS011;6378;42.684;23.372;2023-04-24T08:47:54;10.15;;;6.47;;
12625;SDS011;6378;42.684;23.372;2023-04-24T08:50:20;6.82;;;6.22;;
12625;SDS011;6378;42.684;23.372;2023-04-24T08:52:48;8.50;;;6.65;;
12625;SDS011;6378;42.684;23.372;2023-04-24T08:55:15;11.43;;;6.88;;
12625;SDS011;6378;42.684;23.372;2023-04-24T08:57:43;10.57;;;7.35;;
12625;SDS011;6378;42.684;23.372;2023-04-24T09:00:10;8.88;;;6.70;;
12625;SDS011;6378;42.684;23.372;2023-04-24T09:02:36;9.02;;;7.32;;
12625;SDS011;6378;42.684;23.372;2023-04-24T09:05:04;9.45;;;6.60;;
12625;SDS011;6378;42.684;23.372;2023-04-24T09:07:30;9.38;;;7.03;;
12625;SDS011;6378;42.684;23.372;2023-04-24T09:10:01;7.72;;;6.93;;
12625;SDS011;6378;42.684;23.372;2023-04-24T09:12:27;8.05;;;7.25;;
12625;SDS011;6378;42.684;23.372;2023-04-24T09:14:52;7.53;;;6.63;;
12625;SDS011;6378;42.684;23.372;2023-04-24T09:17:18;10.70;;;7.15;;
12625;SDS011;6378;42.684;23.372;2023-04-24T09:19:44;8.43;;;6.88;;
12625;SDS011;6378;42.684;23.372;2023-04-24T09:22:10;8.13;;;7.20;;
12625;SDS011;6378;42.684;23.372;2023-04-24T09:24:36;8.45;;;7.15;;
12625;SDS011;6378;42.684;23.372;2023-04-24T09:27:02;7.97;;;7.18;;
12625;SDS011;6378;42.684;23.372;2023-04-24T09:29:29;8.70;;;6.80;;
12625;SDS011;6378;42.684;23.372;2023-04-24T09:31:54;9.85;;;7.47;;
12625;SDS011;6378;42.684;23.372;2023-04-24T09:34:23;9.57;;;6.85;;
12625;SDS011;6378;42.684;23.372;2023-04-24T09:36:52;12.75;;;9.10;;
12625;SDS011;6378;42.684;23.372;2023-04-24T09:39:18;8.52;;;6.63;;
12625;SDS011;6378;42.684;23.372;2023-04-24T09:41:51;7.78;;;6.97;;
12625;SDS011;6378;42.684;23.372;2023-04-24T09:46:56;11.82;;;6.85;;
12625;SDS011;6378;42.684;23.372;2023-04-24T09:49:24;7.63;;;6.28;;
12625;SDS011;6378;42.684;23.372;2023-04-24T09:51:51;7.07;;;6.38;;
12625;SDS011;6378;42.684;23.372;2023-04-24T09:54:18;7.22;;;6.47;;
12625;SDS011;6378;42.684;23.372;2023-04-24T09:56:46;7.75;;;7.03;;
12625;SDS011;6378;42.684;23.372;2023-04-24T09:59:14;7.13;;;6.43;;
12625;SDS011;6378;42.684;23.372;2023-04-24T10:01:43;8.05;;;6.25;;
12625;SDS011;6378;42.684;23.372;2023-04-24T10:04:20;9.25;;;6.20;;
12625;SDS011;6378;42.684;23.372;2023-04-24T10:06:50;8.73;;;6.50;;
12625;SDS011;6378;42.684;23.372;2023-04-24T10:09:17;8.07;;;6.45;;
12625;SDS011;6378;42.684;23.372;2023-04-24T10:11:45;10.15;;;6.63;;
12625;SDS011;6378;42.684;23.372;2023-04-24T10:14:12;8.20;;;6.43;;
12625;SDS011;6378;42.684;23.372;2023-04-24T10:16:39;7.00;;;6.18;;
12625;SDS011;6378;42.684;23.372;2023-04-24T10:19:06;11.77;;;6.80;;
12625;SDS011;6378;42.684;23.372;2023-04-24T10:21:32;7.10;;;6.40;;
12625;SDS011;6378;42.684;23.372;2023-04-24T10:23:57;9.75;;;6.60;;
12625;SDS011;6378;42.684;23.372;2023-04-24T10:26:25;8.38;;;6.65;;
12625;SDS011;6378;42.684;23.372;2023-04-24T10:28:52;6.78;;;6.10;;
12625;SDS011;6378;42.684;23.372;2023-04-24T10:31:21;8.27;;;5.88;;
12625;SDS011;6378;42.684;23.372;2023-04-24T10:33:47;8.93;;;6.05;;
12625;SDS011;6378;42.684;23.372;2023-04-24T10:36:14;9.00;;;6.10;;
12625;SDS011;6378;42.684;23.372;2023-04-24T10:38:41;7.28;;;5.93;;
12625;SDS011;6378;42.684;23.372;2023-04-24T10:41:09;6.95;;;6.25;;
12625;SDS011;6378;42.684;23.372;2023-04-24T10:43:42;7.43;;;6.13;;
12625;SDS011;6378;42.684;23.372;2023-04-24T10:46:08;6.82;;;5.97;;
12625;SDS011;6378;42.684;23.372;2023-04-24T10:48:35;6.75;;;6.00;;
12625;SDS011;6378;42.684;23.372;2023-04-24T10:51:01;6.65;;;6.05;;
12625;SDS011;6378;42.684;23.372;2023-04-24T10:53:27;10.07;;;6.95;;
12625;SDS011;6378;42.684;23.372;2023-04-24T10:56:07;7.03;;;6.32;;
12625;SDS011;6378;42.684;23.372;2023-04-24T10:58:42;10.45;;;5.80;;
12625;SDS011;6378;42.684;23.372;2023-04-24T11:01:29;7.68;;;6.50;;
12625;SDS011;6378;42.684;23.372;2023-04-24T11:03:56;10.73;;;6.45;;
12625;SDS011;6378;42.684;23.372;2023-04-24T11:09:07;7.10;;;6.28;;
12625;SDS011;6378;42.684;23.372;2023-04-24T11:11:37;7.28;;;6.40;;
12625;SDS011;6378;42.684;23.372;2023-04-24T11:14:06;10.35;;;6.50;;
12625;SDS011;6378;42.684;23.372;2023-04-24T11:21:38;6.78;;;6.07;;
12625;SDS011;6378;42.684;23.372;2023-04-24T11:26:51;8.90;;;6.57;;
12625;SDS011;6378;42.684;23.372;2023-04-24T11:29:38;10.32;;;6.75;;
12625;SDS011;6378;42.684;23.372;2023-04-24T11:32:19;8.93;;;6.82;;
12625;SDS011;6378;42.684;23.372;2023-04-24T11:34:50;24.38;;;7.78;;
12625;SDS011;6378;42.684;23.372;2023-04-24T11:37:17;11.02;;;6.57;;
12625;SDS011;6378;42.684;23.372;2023-04-24T11:39:42;10.88;;;6.60;;
12625;SDS011;6378;42.684;23.372;2023-04-24T11:42:13;9.70;;;7.35;;
12625;SDS011;6378;42.684;23.372;2023-04-24T11:44:41;8.95;;;7.50;;
12625;SDS011;6378;42.684;23.372;2023-04-24T11:47:08;8.80;;;6.82;;
12625;SDS011;6378;42.684;23.372;2023-04-24T11:49:36;7.22;;;6.53;;
12625;SDS011;6378;42.684;23.372;2023-04-24T11:52:02;7.38;;;6.68;;
12625;SDS011;6378;42.684;23.372;2023-04-24T11:54:28;6.07;;;5.47;;
12625;SDS011;6378;42.684;23.372;2023-04-24T11:56:53;6.55;;;6.00;;
12625;SDS011;6378;42.684;23.372;2023-04-24T11:59:19;6.90;;;6.20;;
12625;SDS011;6378;42.684;23.372;2023-04-24T12:01:47;6.22;;;5.72;;
12625;SDS011;6378;42.684;23.372;2023-04-24T12:04:14;5.65;;;5.10;;
12625;SDS011;6378;42.684;23.372;2023-04-24T12:07:00;9.13;;;6.10;;
12625;SDS011;6378;42.684;23.372;2023-04-24T12:09:26;5.80;;;4.95;;
12625;SDS011;6378;42.684;23.372;2023-04-24T12:11:52;9.48;;;6.00;;
12625;SDS011;6378;42.684;23.372;2023-04-24T12:14:20;6.32;;;5.22;;
12625;SDS011;6378;42.684;23.372;2023-04-24T12:16:47;5.88;;;5.32;;
12625;SDS011;6378;42.684;23.372;2023-04-24T12:19:17;6.78;;;5.70;;
12625;SDS011;6378;42.684;23.372;2023-04-24T12:22:02;11.80;;;6.78;;
12625;SDS011;6378;42.684;23.372;2023-04-24T12:24:30;8.43;;;5.90;;
12625;SDS011;6378;42.684;23.372;2023-04-24T12:26:56;5.78;;;5.20;;
12625;SDS011;6378;42.684;23.372;2023-04-24T12:29:22;12.57;;;6.43;;
12625;SDS011;6378;42.684;23.372;2023-04-24T12:31:49;7.00;;;6.30;;
12625;SDS011;6378;42.684;23.372;2023-04-24T12:34:18;6.22;;;5.50;;
12625;SDS011;6378;42.684;23.372;2023-04-24T12:36:47;7.10;;;4.95;;
12625;SDS011;6378;42.684;23.372;2023-04-24T12:39:16;6.70;;;4.57;;
12625;SDS011;6378;42.684;23.372;2023-04-24T12:41:55;5.13;;;4.72;;
12625;SDS011;6378;42.684;23.372;2023-04-24T12:44:32;9.82;;;5.82;;
12625;SDS011;6378;42.684;23.372;2023-04-24T12:46:59;7.80;;;5.43;;
12625;SDS011;6378;42.684;23.372;2023-04-24T12:49:26;8.52;;;5.90;;
12625;SDS011;6378;42.684;23.372;2023-04-24T12:51:51;6.32;;;4.93;;
12625;SDS011;6378;42.684;23.372;2023-04-24T12:54:17;9.60;;;5.50;;
12625;SDS011;6378;42.684;23.372;2023-04-24T12:56:43;7.65;;;5.20;;
12625;SDS011;6378;42.684;23.372;2023-04-24T12:59:08;5.85;;;5.18;;
12625;SDS011;6378;42.684;23.372;2023-04-24T13:01:34;6.68;;;5.07;;
12625;SDS011;6378;42.684;23.372;2023-04-24T13:03:59;8.00;;;5.55;;
12625;SDS011;6378;42.684;23.372;2023-04-24T13:06:25;7.72;;;5.78;;
12625;SDS011;6378;42.684;23.372;2023-04-24T13:08:51;9.75;;;5.47;;
12625;SDS011;6378;42.684;23.372;2023-04-24T13:11:17;8.35;;;5.45;;
12625;SDS011;6378;42.684;23.372;2023-04-24T13:13:42;5.72;;;5.22;;
12625;SDS011;6378;42.684;23.372;2023-04-24T13:16:08;6.72;;;5.57;;
12625;SDS011;6378;42.684;23.372;2023-04-24T13:18:33;6.68;;;5.40;;
12625;SDS011;6378;42.684;23.372;2023-04-24T13:20:59;6.43;;;5.60;;
12625;SDS011;6378;42.684;23.372;2023-04-24T13:23:24;7.28;;;5.68;;
12625;SDS011;6378;42.684;23.372;2023-04-24T13:25:53;6.38;;;5.70;;
12625;SDS011;6378;42.684;23.372;2023-04-24T13:28:22;6.63;;;5.93;;
12625;SDS011;6378;42.684;23.372;2023-04-24T13:30:48;7.82;;;5.70;;
12625;SDS011;6378;42.684;23.372;2023-04-24T13:33:14;6.63;;;5.57;;
12625;SDS011;6378;42.684;23.372;2023-04-24T13:35:39;5.88;;;5.03;;
12625;SDS011;6378;42.684;23.372;2023-04-24T13:38:05;5.47;;;5.07;;
12625;SDS011;6378;42.684;23.372;2023-04-24T13:40:31;6.32;;;5.82;;
12625;SDS011;6378;42.684;23.372;2023-04-24T13:42:57;7.68;;;6.05;;
12625;SDS011;6378;42.684;23.372;2023-04-24T13:45:22;7.10;;;6.40;;
12625;SDS011;6378;42.684;23.372;2023-04-24T13:47:48;6.72;;;5.70;;
12625;SDS011;6378;42.684;23.372;2023-04-24T13:50:13;8.35;;;6.05;;
12625;SDS011;6378;42.684;23.372;2023-04-24T13:52:39;10.65;;;6.20;;
12625;SDS011;6378;42.684;23.372;2023-04-24T13:55:05;7.45;;;6.03;;
12625;SDS011;6378;42.684;23.372;2023-04-24T13:57:31;9.10;;;5.30;;
12625;SDS011;6378;42.684;23.372;2023-04-24T13:59:57;7.70;;;5.65;;
12625;SDS011;6378;42.684;23.372;2023-04-24T14:02:26;7.03;;;5.18;;
12625;SDS011;6378;42.684;23.372;2023-04-24T14:04:52;5.25;;;4.82;;
12625;SDS011;6378;42.684;23.372;2023-04-24T14:07:18;8.75;;;5.78;;
12625;SDS011;6378;42.684;23.372;2023-04-24T14:09:43;8.93;;;5.45;;
12625;SDS011;6378;42.684;23.372;2023-04-24T14:12:08;7.43;;;5.70;;
12625;SDS011;6378;42.684;23.372;2023-04-24T14:14:34;5.63;;;4.70;;
12625;SDS011;6378;42.684;23.372;2023-04-24T14:17:00;5.80;;;5.20;;
12625;SDS011;6378;42.684;23.372;2023-04-24T14:19:25;5.60;;;5.10;;
12625;SDS011;6378;42.684;23.372;2023-04-24T14:21:50;6.00;;;4.85;;
12625;SDS011;6378;42.684;23.372;2023-04-24T14:24:16;5.43;;;4.85;;
12625;SDS011;6378;42.684;23.372;2023-04-24T14:26:41;5.13;;;4.53;;
12625;SDS011;6378;42.684;23.372;2023-04-24T14:29:07;8.30;;;5.40;;
12625;SDS011;6378;42.684;23.372;2023-04-24T14:31:32;5.95;;;4.65;;
12625;SDS011;6378;42.684;23.372;2023-04-24T14:33:58;5.45;;;4.95;;
12625;SDS011;6378;42.684;23.372;2023-04-24T14:36:23;5.90;;;5.30;;
12625;SDS011;6378;42.684;23.372;2023-04-24T14:38:49;5.65;;;5.03;;
12625;SDS011;6378;42.684;23.372;2023-04-24T14:41:14;7.95;;;5.57;;
12625;SDS011;6378;42.684;23.372;2023-04-24T14:43:40;7.88;;;5.18;;
12625;SDS011;6378;42.684;23.372;2023-04-24T14:46:05;5.25;;;4.70;;
12625;SDS011;6378;42.684;23.372;2023-04-24T14:48:31;10.70;;;4.93;;
12625;SDS011;6378;42.684;23.372;2023-04-24T14:50:56;6.32;;;4.82;;
12625;SDS011;6378;42.684;23.372;2023-04-24T14:53:23;5.93;;;4.38;;